Plains, Pennsylvania
Current Conditions -  °F | °C
As of 5:08 AM on Sunday 25 Jan 2015 (Local Time) from KAVP Reporting Station
Overcast Overcast  
Wind Chill: 24°   Ceiling: 2900
Heat Index: 33°   Visibility: 9mi
Dew Point: 25°   Wind: 13mph
Humidity: 72%   Direction: 230°SW
Pressure: 29.58"   Gusts: NA
Location:  41.2711°N, 75.8417°W
Report Text: KAVP 251008Z AUTO 23011KT 9SM BKN029 OVC036 01/M04 A2958 RMK AO2 T00061039
Loading
Personal Weather Stations






























Interactive Weather Map New forecast layout! Learn more

10-Day Weather Forecast

Advertisements
Track Severe Weather on mobile